aviador You're here:

RJCK Decoded Metar

KUSHIRO AIRPORT in JAPAN
Report Time2017-12-15 23:16:00
UTC Time2017-12-15 23:33:16
Flight Rules ifr IFR
Wind330° at 07 kt
W.Decomp.*RWY 35: 6.8 kt HW 1.5 kt LCW
W.Rank330° ranks 12
Current wind is below 330° avg. (7.2)
Visibility3200 m
Phenomena:Light Shower Snow
Clouds:Few 006 Hf
Broken 009 Hf
Broken 018 Hf
Expected CloudBase > 800 ft AGL from Temp-Dew spread
Ceiling900 ft
Temp-4°C (ISA -18)
Dew Point-6°C (86% RH)
AAT-9.2°C
QNH1008 hPa
Density Alt-1,716 ft
Elevation322 ft
Report Wrong Elevation
Raw Report
RJCK 152316Z 33007KT 3200 -SHSN FEW006 BKN009 BKN018 M04/M06 Q1008
RMK 1ST006 5ST009 6ST018 A2977=

Extra information for RJCK:More info

Metar Taf Metar & Taf Last 4 Metars F.Rules Stats Wind Profile Meteogram Temp Stats Airport Information Weather charts Add Link Nearby VenuesMetar ALERT Operation Metar Decoded Social comments